Terminal Aerodrome Forecast
Issued by NWS Twin Cities, MN

Home | Current Version | Previous Version | Graphics & Text | Print | Product List | Glossary On
Versions: 1 2 3 4 5 6 7 8 9 10 11 12 13 14 15 16 17 18 19 20 21 22 23 24 25 26 27
383
FTUS43 KMPX 251945 AAA
TAFMSP
TAF AMD
KMSP 251945Z 2520/2624 32012KT P6SM SCT045
     FM252100 28011KT P6SM BKN045
     FM260000 25008KT P6SM BKN060
     FM262000 26008KT P6SM SCT050=

USA.gov is the U.S. government's official web portal to all federal, state and local government web resources and services.